createdAt,value
2023-04-28T00:03:06.447Z,7.2
2023-04-28T00:04:07.432Z,7.2
2023-04-28T00:06:06.543Z,7.2
2023-04-28T00:07:06.580Z,7
2023-04-28T00:08:06.704Z,7.2
2023-04-28T00:09:06.106Z,7.2
2023-04-28T00:10:06.568Z,7.2
2023-04-28T00:11:06.314Z,7.2
2023-04-28T00:12:06.468Z,7.2
2023-04-28T00:13:06.728Z,7.2
2023-04-28T00:19:06.184Z,7.3
2023-04-28T00:20:06.405Z,7.3
2023-04-28T00:21:06.377Z,7.3
2023-04-28T00:22:06.823Z,7.3
2023-04-28T00:23:06.039Z,7.3
2023-04-28T00:24:06.381Z,7.3
2023-04-28T00:25:06.596Z,7.3
2023-04-28T00:26:06.334Z,7.3
2023-04-28T00:27:05.958Z,7.3
2023-04-28T00:28:06.907Z,7.3
2023-04-28T00:30:06.608Z,7.3
2023-04-28T00:31:06.299Z,7.3
2023-04-28T00:32:07.028Z,7.3
2023-04-28T00:34:06.992Z,7.3
2023-04-28T00:35:06.191Z,7.3
2023-04-28T00:36:06.423Z,7.3
2023-04-28T00:37:06.562Z,7
2023-04-28T00:38:06.884Z,7.3
2023-04-28T00:39:06.477Z,7.3
2023-04-28T00:40:06.623Z,7.2
2023-04-28T00:41:05.902Z,7.2
2023-04-28T00:42:06.404Z,7.2
2023-04-28T00:43:06.562Z,7.2
2023-04-28T00:48:06.353Z,7.3
2023-04-28T00:49:06.425Z,7.3
2023-04-28T00:50:06.736Z,7.4
2023-04-28T00:51:06.855Z,7.4
2023-04-28T00:52:06.447Z,7.4
2023-04-28T00:53:06.770Z,7.4
2023-04-28T00:54:06.821Z,7.4
2023-04-28T00:55:05.983Z,7.4
2023-04-28T00:56:05.898Z,7.4
2023-04-28T00:57:06.204Z,7.4
2023-04-28T00:58:06.704Z,7.4
2023-04-28T01:01:06.458Z,7.4
2023-04-28T01:02:07.000Z,7.4
2023-04-28T01:03:06.493Z,7.4
2023-04-28T01:04:07.394Z,7.4
2023-04-28T01:06:06.927Z,7.4
2023-04-28T01:07:06.068Z,7.5
2023-04-28T01:08:06.338Z,7.5
2023-04-28T01:09:06.623Z,7.5
2023-04-28T01:10:06.911Z,7.5
2023-04-28T01:11:07.003Z,7.5
2023-04-28T01:12:05.895Z,7.5
2023-04-28T01:13:06.171Z,7.5
2023-04-28T01:14:05.998Z,7.5
2023-04-28T01:15:06.276Z,7
2023-04-28T01:16:06.378Z,7
2023-04-28T01:17:06.849Z,7.5
2023-04-28T01:18:06.216Z,7.5
2023-04-28T01:19:06.414Z,7.5
2023-04-28T01:20:06.961Z,7.5
2023-04-28T01:21:06.080Z,7.6
2023-04-28T01:22:06.446Z,7
2023-04-28T01:23:06.726Z,7.5
2023-04-28T01:24:06.745Z,7.6
2023-04-28T01:25:06.074Z,7.6
2023-04-28T01:26:06.306Z,7.6
2023-04-28T01:27:06.367Z,7.6
2023-04-28T01:28:06.647Z,7.6
2023-04-28T01:29:06.749Z,7.6
2023-04-28T01:30:06.193Z,7.6
2023-04-28T01:31:06.374Z,7.6
2023-04-28T01:32:06.707Z,7.6
2023-04-28T01:34:06.156Z,7.6
2023-04-28T01:36:06.797Z,7.6
2023-04-28T01:37:06.557Z,7.6
2023-04-28T01:38:05.470Z,7.6
2023-04-28T01:39:06.755Z,8
2023-04-28T01:40:06.638Z,8
2023-04-28T01:41:06.238Z,7.6
2023-04-28T01:42:06.699Z,7.6
2023-04-28T01:43:06.839Z,7.6
2023-04-28T01:44:06.103Z,7.6
2023-04-28T01:45:06.336Z,7.6
2023-04-28T01:46:06.788Z,7.6
2023-04-28T01:47:06.913Z,7.6
2023-04-28T01:48:06.222Z,7.6
2023-04-28T01:49:06.282Z,7.6
2023-04-28T01:50:06.663Z,7.6
2023-04-28T01:51:06.583Z,7.6
2023-04-28T01:52:06.860Z,7.6
2023-04-28T01:53:06.034Z,8
2023-04-28T01:54:06.570Z,8
2023-04-28T01:55:06.848Z,7.6
2023-04-28T01:56:06.931Z,7.6
2023-04-28T01:57:06.196Z,7.6
2023-04-28T01:58:06.138Z,7
2023-04-28T01:59:06.302Z,7.6
2023-04-28T02:00:06.700Z,7.6
2023-04-28T02:01:06.219Z,7.6
2023-04-28T02:02:06.585Z,7.6
2023-04-28T02:03:06.895Z,7.6
2023-04-28T02:04:07.383Z,7.6
2023-04-28T02:05:06.248Z,7.6
2023-04-28T02:06:06.786Z,7.7
2023-04-28T02:07:06.406Z,7.7
2023-04-28T02:08:06.417Z,7.7
2023-04-28T02:09:06.586Z,7.7
2023-04-28T02:10:07.159Z,7.7
2023-04-28T02:11:06.149Z,7.7
2023-04-28T02:12:06.654Z,7.7
2023-04-28T02:13:06.580Z,7.6
2023-04-28T02:17:05.750Z,7
2023-04-28T02:18:06.373Z,7.6
2023-04-28T02:19:06.355Z,7.6
2023-04-28T02:20:06.768Z,7.6
2023-04-28T02:21:06.515Z,7
2023-04-28T02:22:06.916Z,7.6
2023-04-28T02:23:06.054Z,7.6
2023-04-28T02:24:06.366Z,7.6
2023-04-28T02:25:06.802Z,7.6
2023-04-28T02:26:06.902Z,7.6
2023-04-28T02:27:06.225Z,7.6
2023-04-28T02:28:06.823Z,7.6
2023-04-28T02:29:05.999Z,7.6
2023-04-28T02:30:06.532Z,7.6
2023-04-28T02:31:06.829Z,7.6
2023-04-28T02:32:06.976Z,7.6
2023-04-28T02:33:06.317Z,7
2023-04-28T02:34:06.306Z,7.6
2023-04-28T02:35:06.770Z,7.6
2023-04-28T02:36:06.180Z,7.6
2023-04-28T02:37:06.331Z,7.5
2023-04-28T02:38:06.324Z,7.6
2023-04-28T02:39:06.932Z,7.6
2023-04-28T02:40:06.310Z,7.6
2023-04-28T02:41:06.547Z,7.6
2023-04-28T02:42:07.028Z,7.6
2023-04-28T02:43:06.239Z,7.6
2023-04-28T02:44:06.618Z,7.6
2023-04-28T02:45:06.243Z,7.6
2023-04-28T02:48:06.072Z,7.6
2023-04-28T02:49:06.373Z,7.6
2023-04-28T02:50:06.918Z,7.5
2023-04-28T02:51:06.959Z,7.5
2023-04-28T02:52:06.110Z,7.5
2023-04-28T02:53:06.470Z,7.5
2023-04-28T02:54:06.643Z,7.5
2023-04-28T02:55:06.755Z,7.5
2023-04-28T02:56:06.386Z,7.5
2023-04-28T02:57:06.444Z,7.5
2023-04-28T02:58:06.773Z,7.5
2023-04-28T02:59:06.070Z,7.5
2023-04-28T03:00:06.499Z,7.5
2023-04-28T03:01:06.389Z,7.5
2023-04-28T03:02:06.286Z,7.5
2023-04-28T03:03:07.106Z,7.5
2023-04-28T03:04:07.258Z,7.4
2023-04-28T03:09:06.052Z,7
2023-04-28T03:10:06.592Z,7.4
2023-04-28T03:11:06.397Z,7.4
2023-04-28T03:13:06.541Z,7.4
2023-04-28T03:14:06.955Z,7.4
2023-04-28T03:15:05.560Z,7.4
2023-04-28T03:16:06.681Z,7.4
2023-04-28T03:17:06.510Z,7.4
2023-04-28T03:18:06.691Z,7.4
2023-04-28T03:19:07.027Z,7.4
2023-04-28T03:20:06.118Z,7.4
2023-04-28T03:21:06.435Z,7.4
2023-04-28T03:22:06.638Z,7.4
2023-04-28T03:24:09.081Z,7.4
2023-04-28T03:28:05.991Z,7.4
2023-04-28T03:29:06.247Z,7.4
2023-04-28T03:30:06.619Z,7.4
2023-04-28T03:31:06.865Z,7.4
2023-04-28T03:32:06.148Z,7.4
2023-04-28T03:33:06.295Z,7.4
2023-04-28T03:34:06.168Z,7
2023-04-28T03:35:06.425Z,7.4
2023-04-28T03:36:06.584Z,7.4
2023-04-28T03:37:06.907Z,7.4
2023-04-28T03:38:06.222Z,7.4
2023-04-28T03:39:06.457Z,7.4
2023-04-28T03:40:06.150Z,7.4
2023-04-28T03:41:05.914Z,7.4
2023-04-28T03:42:06.478Z,7.4
2023-04-28T03:43:08.898Z,7.4
2023-04-28T03:44:06.799Z,7.4
2023-04-28T03:45:06.924Z,7.4
2023-04-28T03:48:06.707Z,7.4
2023-04-28T03:49:06.862Z,7.4
2023-04-28T03:50:05.790Z,7.4
2023-04-28T03:51:06.275Z,7.3
2023-04-28T03:52:06.577Z,7.3
2023-04-28T03:53:06.647Z,7.3
2023-04-28T03:54:06.911Z,7.3
2023-04-28T03:55:06.128Z,7.4
2023-04-28T03:56:06.277Z,7.4
2023-04-28T03:57:06.536Z,7.4
2023-04-28T03:58:06.782Z,7.4
2023-04-28T03:59:06.094Z,7.4
2023-04-28T04:00:06.453Z,7.3
2023-04-28T04:01:06.512Z,7.3
2023-04-28T04:02:06.619Z,7.3
2023-04-28T04:05:05.924Z,7.3
2023-04-28T04:06:06.612Z,7
2023-04-28T04:07:06.776Z,7
2023-04-28T04:08:06.023Z,7.3
2023-04-28T04:09:06.280Z,7.3
2023-04-28T04:10:08.889Z,7.2
2023-04-28T04:12:06.671Z,7.2
2023-04-28T04:13:07.005Z,7.2
2023-04-28T04:14:06.205Z,7
2023-04-28T04:15:06.346Z,7.2
2023-04-28T04:16:06.738Z,7.2
2023-04-28T04:17:06.792Z,7.3
2023-04-28T04:18:06.636Z,7.2
2023-04-28T04:19:06.299Z,7.2
2023-04-28T04:20:06.891Z,7.3
2023-04-28T04:21:05.869Z,7.2
2023-04-28T04:22:06.153Z,7.2
2023-04-28T04:23:06.353Z,7.2
2023-04-28T04:24:06.660Z,7.2
2023-04-28T04:30:17.016Z,7.2
2023-04-28T04:31:06.514Z,7.2
2023-04-28T04:32:06.499Z,7.2
2023-04-28T04:33:06.169Z,7.3
2023-04-28T04:37:05.984Z,7.2
2023-04-28T04:38:06.431Z,7.3
2023-04-28T04:39:06.485Z,7.3
2023-04-28T04:40:06.800Z,7.3
2023-04-28T04:41:06.658Z,7.3
2023-04-28T04:42:27.936Z,7.3
2023-04-28T04:44:06.633Z,7.4
2023-04-28T04:45:06.269Z,7.4
2023-04-28T04:46:06.484Z,7.4
2023-04-28T04:47:06.709Z,7.4
2023-04-28T04:48:05.992Z,7.4
2023-04-28T04:49:06.379Z,7.4
2023-04-28T04:50:06.748Z,7.4
2023-04-28T04:51:06.502Z,7.5
2023-04-28T04:54:05.991Z,7.5
2023-04-28T04:55:06.248Z,7.5
2023-04-28T04:56:06.900Z,7.6
2023-04-28T04:57:06.066Z,7.5
2023-04-28T04:58:06.339Z,7.5
2023-04-28T04:59:06.505Z,7.5
2023-04-28T05:00:06.678Z,7.6
2023-04-28T05:01:06.050Z,7.6
2023-04-28T05:02:06.397Z,7
2023-04-28T05:03:06.817Z,7.6
2023-04-28T05:05:25.334Z,7.6
2023-04-28T05:07:05.321Z,7
2023-04-28T05:08:06.528Z,7.6
2023-04-28T05:09:06.551Z,7.7
2023-04-28T05:10:06.842Z,7.6
2023-04-28T05:11:06.705Z,7.6
2023-04-28T05:12:05.962Z,7.7
2023-04-28T05:16:05.951Z,7.7
2023-04-28T05:17:06.394Z,7.8
2023-04-28T05:18:06.767Z,7.8
2023-04-28T05:19:06.068Z,7.7
2023-04-28T05:20:06.483Z,7.8
2023-04-28T05:21:06.676Z,7.8
2023-04-28T05:22:06.225Z,7.8
2023-04-28T05:23:06.410Z,7.8
2023-04-28T05:24:06.572Z,7.8
2023-04-28T05:25:06.858Z,7.8
2023-04-28T05:26:06.528Z,7.9
2023-04-28T05:27:06.487Z,7.9
2023-04-28T05:29:06.326Z,8
2023-04-28T05:30:06.710Z,7.9
2023-04-28T05:31:06.832Z,8
2023-04-28T05:32:06.207Z,8
2023-04-28T05:33:06.547Z,8
2023-04-28T05:34:06.718Z,8
2023-04-28T05:35:06.982Z,8
2023-04-28T05:36:06.162Z,8
2023-04-28T05:37:06.714Z,8
2023-04-28T05:38:06.985Z,8
2023-04-28T05:39:06.139Z,8
2023-04-28T05:40:06.523Z,8
2023-04-28T05:41:06.378Z,8
2023-04-28T05:42:06.651Z,8.1
2023-04-28T05:43:06.028Z,8.1
2023-04-28T05:44:06.200Z,8
2023-04-28T05:45:06.418Z,8.1
2023-04-28T05:46:14.980Z,8.1
2023-04-28T05:48:06.731Z,8.1
2023-04-28T05:49:06.986Z,8.2
2023-04-28T05:50:06.111Z,8.2
2023-04-28T05:51:06.041Z,8.2
2023-04-28T05:52:06.343Z,8
2023-04-28T05:53:06.578Z,8.2
2023-04-28T05:54:06.764Z,8.2
2023-04-28T05:55:06.037Z,8.2
2023-04-28T05:56:06.286Z,8.2
2023-04-28T05:57:06.579Z,8
2023-04-28T05:58:06.848Z,8.3
2023-04-28T05:59:06.126Z,8.3
2023-04-28T06:00:06.402Z,8.3
2023-04-28T06:01:06.712Z,8
2023-04-28T06:02:07.182Z,8
2023-04-28T06:03:06.151Z,8.3
2023-04-28T06:05:07.392Z,8.3
2023-04-28T06:06:12.147Z,8.4
2023-04-28T06:07:06.174Z,8
2023-04-28T06:08:06.343Z,8
2023-04-28T06:09:06.767Z,8.3
2023-04-28T06:10:06.992Z,8.3
2023-04-28T06:11:06.652Z,8.3
2023-04-28T06:12:06.800Z,8.3
2023-04-28T06:13:06.076Z,8.3
2023-04-28T06:14:06.105Z,8.3
2023-04-28T06:15:06.825Z,8.3
2023-04-28T06:16:07.004Z,8.3
2023-04-28T06:17:06.215Z,8.3
2023-04-28T06:18:06.620Z,8.4
2023-04-28T06:19:06.594Z,8.4
2023-04-28T06:20:06.862Z,8.4
2023-04-28T06:21:06.264Z,8.4
2023-04-28T06:22:06.357Z,8.4
2023-04-28T06:23:06.492Z,8.4
2023-04-28T06:24:06.768Z,8.4
2023-04-28T06:25:06.059Z,8.4
2023-04-28T06:26:06.349Z,8.4
2023-04-28T06:27:06.665Z,8.4
2023-04-28T06:28:06.907Z,8.4
2023-04-28T06:29:06.015Z,8.4
2023-04-28T06:30:06.357Z,8.5
2023-04-28T06:31:06.667Z,8.5
2023-04-28T06:32:06.996Z,8
2023-04-28T06:34:06.418Z,8.5
2023-04-28T06:35:06.611Z,8.5
2023-04-28T06:36:06.752Z,8.5
2023-04-28T06:37:06.058Z,8.5
2023-04-28T06:38:06.378Z,8.5
2023-04-28T06:39:06.860Z,8.6
2023-04-28T06:40:06.060Z,8.6
2023-04-28T06:41:06.435Z,8.6
2023-04-28T06:42:06.828Z,8.6
2023-04-28T06:43:06.921Z,8.6
2023-04-28T06:44:05.165Z,8.5
2023-04-28T06:45:06.441Z,8.5
2023-04-28T06:46:06.672Z,8.5
2023-04-28T06:47:06.014Z,8
2023-04-28T06:48:06.456Z,8
2023-04-28T06:49:06.559Z,8.6
2023-04-28T06:50:07.021Z,8.6
2023-04-28T06:51:06.249Z,8.5
2023-04-28T06:52:06.496Z,8.6
2023-04-28T06:53:06.841Z,8.6
2023-04-28T06:54:06.019Z,8.5
2023-04-28T06:55:06.335Z,8.5
2023-04-28T06:56:06.845Z,8.6
2023-04-28T06:57:06.928Z,8.6
2023-04-28T06:58:06.051Z,8.6
2023-04-28T06:59:06.552Z,8.7
2023-04-28T07:00:07.048Z,8.6
2023-04-28T07:01:07.079Z,8.6
2023-04-28T07:02:06.244Z,8.7
2023-04-28T07:03:06.734Z,8.7
2023-04-28T07:04:07.122Z,8.7
2023-04-28T07:05:07.014Z,8.8
2023-04-28T07:06:06.806Z,8
2023-04-28T07:08:06.804Z,8.9
2023-04-28T07:09:06.001Z,9
2023-04-28T07:10:06.399Z,8.9
2023-04-28T07:11:07.189Z,8.9
2023-04-28T07:13:06.089Z,8.8
2023-04-28T07:14:06.190Z,9
2023-04-28T07:15:06.641Z,8.9
2023-04-28T07:16:06.498Z,8.9
2023-04-28T07:17:06.732Z,8.9
2023-04-28T07:18:06.001Z,8.9
2023-04-28T07:19:06.676Z,8.9
2023-04-28T07:20:07.087Z,9
2023-04-28T07:21:07.744Z,9
2023-04-28T07:25:06.135Z,9.1
2023-04-28T07:26:06.258Z,9.1
2023-04-28T07:27:06.603Z,9.1
2023-04-28T07:28:06.992Z,9.1
2023-04-28T07:29:06.073Z,9.1
2023-04-28T07:30:29.998Z,9.2
2023-04-28T07:32:09.656Z,9.2
2023-04-28T07:33:06.556Z,9.1
2023-04-28T07:34:06.820Z,9.1
2023-04-28T07:35:06.216Z,9.2
2023-04-28T07:36:06.775Z,9.2
2023-04-28T07:37:07.286Z,9.2
2023-04-28T07:39:06.199Z,9.2
2023-04-28T07:40:06.694Z,9.2
2023-04-28T07:41:10.063Z,9.2
2023-04-28T07:42:06.266Z,9.2
2023-04-28T07:43:06.239Z,9.1
2023-04-28T07:44:06.434Z,9.1
2023-04-28T07:45:06.949Z,9.1
2023-04-28T07:46:06.149Z,9.2
2023-04-28T07:47:06.316Z,9.2
2023-04-28T07:48:06.661Z,9.2
2023-04-28T07:49:07.094Z,9.2
2023-04-28T07:50:06.259Z,9.2
2023-04-28T07:51:06.276Z,9.2
2023-04-28T07:52:06.633Z,9.2
2023-04-28T07:54:05.982Z,9.2
2023-04-28T07:55:06.163Z,9
2023-04-28T07:56:06.359Z,9
2023-04-28T07:57:06.726Z,9.2
2023-04-28T07:58:06.018Z,9.2
2023-04-28T07:59:06.329Z,9.2
2023-04-28T08:00:06.739Z,9.2
2023-04-28T08:01:06.848Z,9.2
2023-04-28T08:02:06.263Z,9.2
2023-04-28T08:03:06.671Z,9
2023-04-28T08:04:07.498Z,9.2
2023-04-28T08:06:06.736Z,9.2
2023-04-28T08:08:05.953Z,9.2
2023-04-28T08:09:06.409Z,9.2
2023-04-28T08:10:06.614Z,9
2023-04-28T08:11:06.140Z,9.4
2023-04-28T08:12:06.274Z,9.3
2023-04-28T08:13:06.637Z,9.4
2023-04-28T08:14:06.939Z,9.5
2023-04-28T08:15:06.150Z,9.5
2023-04-28T08:16:06.376Z,9.6
2023-04-28T08:17:06.700Z,9.6
2023-04-28T08:18:05.475Z,9.6
2023-04-28T08:19:06.872Z,9.6
2023-04-28T08:20:05.954Z,9.6
2023-04-28T08:24:06.045Z,9
2023-04-28T08:25:06.292Z,9.6
2023-04-28T08:26:06.890Z,9.6
2023-04-28T08:27:06.033Z,9.6
2023-04-28T08:28:06.012Z,9.6
2023-04-28T08:29:06.577Z,9.7
2023-04-28T08:30:06.859Z,9.7
2023-04-28T08:31:06.571Z,9.7
2023-04-28T08:32:06.608Z,9.7
2023-04-28T08:33:07.365Z,10
2023-04-28T08:34:06.293Z,9.8
2023-04-28T08:35:06.705Z,9.8
2023-04-28T08:36:06.823Z,9.8
2023-04-28T08:37:05.787Z,9.8
2023-04-28T08:38:06.116Z,9.8
2023-04-28T08:39:06.456Z,9.9
2023-04-28T08:40:06.692Z,9.8
2023-04-28T08:41:07.046Z,9.9
2023-04-28T08:42:06.872Z,9.9
2023-04-28T08:43:06.002Z,10
2023-04-28T08:44:06.391Z,10
2023-04-28T08:45:06.712Z,10
2023-04-28T08:46:07.009Z,10
2023-04-28T08:49:06.253Z,10
2023-04-28T08:50:06.832Z,10.1
2023-04-28T08:51:06.055Z,10.1
2023-04-28T08:52:06.356Z,10.1
2023-04-28T08:53:06.486Z,10.1
2023-04-28T08:54:25.213Z,10.2
2023-04-28T08:56:06.874Z,10.2
2023-04-28T08:57:06.971Z,10.3
2023-04-28T08:58:06.018Z,10.3
2023-04-28T08:59:06.281Z,10
2023-04-28T09:00:06.613Z,10.4
2023-04-28T09:01:06.746Z,10.4
2023-04-28T09:02:06.501Z,10.4
2023-04-28T09:03:06.988Z,10.4
2023-04-28T09:04:07.563Z,10.4
2023-04-28T09:05:06.600Z,10.5
2023-04-28T09:07:06.579Z,10.5
2023-04-28T09:08:06.620Z,10.5
2023-04-28T09:09:06.206Z,10.5
2023-04-28T09:10:06.326Z,10.6
2023-04-28T09:11:06.367Z,10.6
2023-04-28T09:12:06.621Z,10.6
2023-04-28T09:13:06.863Z,10.6
2023-04-28T09:14:06.195Z,10.6
2023-04-28T09:15:06.537Z,10.7
2023-04-28T09:16:07.011Z,10.7
2023-04-28T09:17:06.204Z,10.7
2023-04-28T09:18:06.765Z,10.8
2023-04-28T09:20:06.994Z,10.8
2023-04-28T09:21:06.209Z,10.9
2023-04-28T09:22:28.549Z,10.9
2023-04-28T09:24:06.601Z,11
2023-04-28T09:25:06.676Z,11.1
2023-04-28T09:26:06.126Z,11.1
2023-04-28T09:27:06.266Z,11.1
2023-04-28T09:28:06.003Z,11.2
2023-04-28T09:29:06.424Z,11.2
2023-04-28T09:30:06.575Z,11.2
2023-04-28T09:31:06.664Z,11.2
2023-04-28T09:36:06.022Z,11.2
2023-04-28T09:37:06.329Z,11.3
2023-04-28T09:38:06.460Z,11.3
2023-04-28T09:39:06.653Z,11.3
2023-04-28T09:40:06.128Z,11.4
2023-04-28T09:41:06.516Z,11.4
2023-04-28T09:42:06.450Z,11.5
2023-04-28T09:43:24.290Z,11.5
2023-04-28T09:45:06.228Z,11.6
2023-04-28T09:46:07.065Z,11.6
2023-04-28T09:47:06.198Z,11.6
2023-04-28T09:48:06.602Z,11.7
2023-04-28T09:49:06.773Z,11.8
2023-04-28T09:50:06.125Z,11.8
2023-04-28T09:51:06.364Z,11.8
2023-04-28T09:52:06.485Z,11.8
2023-04-28T09:53:06.718Z,11.8
2023-04-28T09:54:06.091Z,11.8
2023-04-28T09:55:06.461Z,11.9
2023-04-28T09:56:06.581Z,11.9
2023-04-28T09:57:07.401Z,11.9
2023-04-28T09:58:06.038Z,11.9
2023-04-28T09:59:06.242Z,12
2023-04-28T10:00:06.715Z,12
2023-04-28T10:01:05.927Z,12
2023-04-28T10:02:44.927Z,12
2023-04-28T10:04:07.497Z,12
2023-04-28T10:05:06.575Z,12
2023-04-28T10:06:07.005Z,12
2023-04-28T10:07:06.170Z,12.1
2023-04-28T10:08:06.564Z,12
2023-04-28T10:09:07.165Z,12
2023-04-28T10:10:07.043Z,12
2023-04-28T10:12:06.022Z,12
2023-04-28T10:13:06.536Z,12
2023-04-28T10:14:06.882Z,12
2023-04-28T10:15:06.257Z,12
2023-04-28T10:16:06.115Z,12
2023-04-28T10:17:06.327Z,12
2023-04-28T10:18:06.650Z,12
2023-04-28T10:19:06.757Z,12
2023-04-28T10:20:06.253Z,12
2023-04-28T10:21:06.394Z,12
2023-04-28T10:22:06.572Z,12
2023-04-28T10:23:06.739Z,12
2023-04-28T10:24:05.994Z,12
2023-04-28T10:25:06.433Z,12
2023-04-28T10:26:06.882Z,12
2023-04-28T10:27:06.071Z,12
2023-04-28T10:28:06.327Z,12
2023-04-28T10:29:06.638Z,12
2023-04-28T10:30:26.217Z,12
2023-04-28T10:31:06.606Z,12
2023-04-28T10:32:06.861Z,12
2023-04-28T10:33:06.094Z,12
2023-04-28T10:34:06.111Z,12
2023-04-28T10:35:06.757Z,12
2023-04-28T10:36:05.850Z,12
2023-04-28T10:37:06.073Z,12
2023-04-28T10:38:06.260Z,12
2023-04-28T10:39:05.975Z,12
2023-04-28T10:40:08.311Z,12
2023-04-28T10:42:05.958Z,12
2023-04-28T10:43:06.269Z,12
2023-04-28T10:44:06.558Z,12
2023-04-28T10:45:06.913Z,12
2023-04-28T10:46:06.621Z,12
2023-04-28T10:47:06.538Z,12
2023-04-28T10:48:06.793Z,12
2023-04-28T10:49:06.151Z,12
2023-04-28T10:50:06.538Z,12
2023-04-28T10:51:06.477Z,12
2023-04-28T10:52:06.667Z,12
2023-04-28T10:55:24.499Z,12
2023-04-28T10:57:06.279Z,12
2023-04-28T10:58:06.630Z,12
2023-04-28T10:59:06.917Z,12
2023-04-28T11:00:05.697Z,12
2023-04-28T11:01:06.969Z,12
2023-04-28T11:02:06.219Z,12
2023-04-28T11:03:06.674Z,12
2023-04-28T11:04:07.160Z,12
2023-04-28T11:05:07.427Z,12
2023-04-28T11:07:06.358Z,12
2023-04-28T11:08:06.447Z,12
2023-04-28T11:09:07.006Z,12
2023-04-28T11:10:06.418Z,11
2023-04-28T11:11:06.484Z,12
2023-04-28T11:12:06.727Z,12
2023-04-28T11:13:05.931Z,12
2023-04-28T11:14:06.188Z,12
2023-04-28T11:15:06.532Z,12
2023-04-28T11:16:07.250Z,12
2023-04-28T11:17:06.259Z,12
2023-04-28T11:18:06.686Z,11.9
2023-04-28T11:19:06.799Z,11.9
2023-04-28T11:20:07.021Z,12
2023-04-28T11:21:06.879Z,11.9
2023-04-28T11:22:05.924Z,11.9
2023-04-28T11:23:06.040Z,11.9
2023-04-28T11:24:06.458Z,11.9
2023-04-28T11:25:06.889Z,11.9
2023-04-28T11:30:06.086Z,11.9
2023-04-28T11:31:06.245Z,11.9
2023-04-28T11:32:06.730Z,11
2023-04-28T11:33:07.301Z,11.9
2023-04-28T11:34:05.940Z,11.9
2023-04-28T11:35:06.585Z,11.9
2023-04-28T11:36:07.044Z,11.9
2023-04-28T11:37:06.024Z,11.9
2023-04-28T11:38:06.171Z,12
2023-04-28T11:39:06.433Z,12
2023-04-28T11:40:06.724Z,12
2023-04-28T11:41:06.870Z,11
2023-04-28T11:42:06.313Z,11
2023-04-28T11:43:06.624Z,11.9
2023-04-28T11:44:06.809Z,12
2023-04-28T11:45:05.894Z,12
2023-04-28T11:46:06.821Z,12
2023-04-28T11:47:08.457Z,11.9
2023-04-28T11:48:06.328Z,11.9
2023-04-28T11:49:06.387Z,11.9
2023-04-28T11:50:06.618Z,11.9
2023-04-28T11:51:06.718Z,11.9
2023-04-28T11:52:06.702Z,11.9
2023-04-28T11:53:06.220Z,11.8
2023-04-28T11:54:06.498Z,11.9
2023-04-28T11:55:06.957Z,11.8
2023-04-28T11:58:06.448Z,11.9
2023-04-28T11:59:08.294Z,11.9
2023-04-28T12:00:06.854Z,11.9
2023-04-28T12:02:06.859Z,11.9
2023-04-28T12:03:07.225Z,11
2023-04-28T12:04:06.401Z,12
2023-04-28T12:05:06.581Z,12
2023-04-28T12:06:06.732Z,12
2023-04-28T12:07:06.840Z,12.1
2023-04-28T12:08:06.035Z,12
2023-04-28T12:09:06.384Z,12
2023-04-28T12:10:06.722Z,12
2023-04-28T12:11:06.321Z,12.1
2023-04-28T12:12:06.689Z,12.1
2023-04-28T12:13:06.873Z,12.1
2023-04-28T12:14:06.103Z,12.1
2023-04-28T12:15:06.550Z,12.1
2023-04-28T12:19:06.197Z,12.1
2023-04-28T12:20:06.496Z,12.1
2023-04-28T12:21:06.038Z,12.1
2023-04-28T12:22:06.476Z,12
2023-04-28T12:23:06.776Z,12.1
2023-04-28T12:24:06.241Z,12.1
2023-04-28T12:25:06.407Z,12.1
2023-04-28T12:26:06.528Z,12.2
2023-04-28T12:27:06.706Z,12.2
2023-04-28T12:28:05.992Z,12.2
2023-04-28T12:29:06.287Z,12.2
2023-04-28T12:30:06.693Z,12.1
2023-04-28T12:31:07.047Z,12.1
2023-04-28T12:32:06.423Z,12.1
2023-04-28T12:33:06.703Z,12.2
2023-04-28T12:34:06.517Z,12.2
2023-04-28T12:35:06.892Z,12.2
2023-04-28T12:36:06.942Z,12.2
2023-04-28T12:37:06.166Z,12.2
2023-04-28T12:38:06.247Z,12.2
2023-04-28T12:39:06.604Z,12.2
2023-04-28T12:40:06.013Z,12.2
2023-04-28T12:41:06.621Z,12.2
2023-04-28T12:42:06.798Z,12.2
2023-04-28T12:47:06.132Z,12
2023-04-28T12:48:06.530Z,12.2
2023-04-28T12:49:06.313Z,12.2
2023-04-28T12:50:06.771Z,12.2
2023-04-28T12:51:06.689Z,12.2
2023-04-28T12:52:06.719Z,12.2
2023-04-28T12:53:06.143Z,12.2
2023-04-28T12:54:06.261Z,12.2
2023-04-28T12:55:06.681Z,12.2
2023-04-28T12:56:06.717Z,12.2
2023-04-28T12:57:06.942Z,12.3
2023-04-28T12:58:05.922Z,12.3
2023-04-28T12:59:06.500Z,12.3
2023-04-28T13:00:07.087Z,12.4
2023-04-28T13:01:06.178Z,12.4
2023-04-28T13:02:06.575Z,12.4
2023-04-28T13:03:07.021Z,12.4
2023-04-28T13:04:07.363Z,12.4
2023-04-28T13:05:07.865Z,12.4
2023-04-28T13:06:06.189Z,12.4
2023-04-28T13:07:06.307Z,12.4
2023-04-28T13:08:06.485Z,12.5
2023-04-28T13:09:06.729Z,12.5
2023-04-28T13:10:06.615Z,12.5
2023-04-28T13:11:23.017Z,12.5
2023-04-28T13:13:05.988Z,12.6
2023-04-28T13:14:06.327Z,12.6
2023-04-28T13:15:06.508Z,12.6
2023-04-28T13:16:06.766Z,12.6
2023-04-28T13:17:06.914Z,12.6
2023-04-28T13:18:06.227Z,12.7
2023-04-28T13:19:06.071Z,12.7
2023-04-28T13:20:06.534Z,12.7
2023-04-28T13:21:07.014Z,12.7
2023-04-28T13:26:06.115Z,13
2023-04-28T13:27:06.659Z,12.9
2023-04-28T13:28:06.720Z,13
2023-04-28T13:29:06.150Z,12.9
2023-04-28T13:30:06.595Z,13
2023-04-28T13:31:06.944Z,13
2023-04-28T13:32:06.230Z,12.9
2023-04-28T13:33:06.276Z,13
2023-04-28T13:34:06.360Z,12.9
2023-04-28T13:35:06.868Z,12.9
2023-04-28T13:36:06.878Z,12.9
2023-04-28T13:37:06.164Z,12.9
2023-04-28T13:38:06.460Z,12.9
2023-04-28T13:39:07.114Z,12.9
2023-04-28T13:44:06.099Z,13
2023-04-28T13:45:06.433Z,13
2023-04-28T13:46:06.565Z,13
2023-04-28T13:47:06.562Z,13
2023-04-28T13:48:06.424Z,13
2023-04-28T13:49:06.836Z,13
2023-04-28T13:50:06.214Z,13
2023-04-28T13:51:06.424Z,13
2023-04-28T13:52:06.665Z,13.1
2023-04-28T13:53:07.096Z,13
2023-04-28T13:54:06.073Z,13.1
2023-04-28T13:55:06.370Z,13.1
2023-04-28T13:56:06.610Z,13.2
2023-04-28T13:57:06.072Z,13.2
2023-04-28T13:58:06.134Z,13.2
2023-04-28T13:59:06.606Z,13.3
2023-04-28T14:00:06.939Z,13.3
2023-04-28T14:02:06.612Z,13.3
2023-04-28T14:03:07.141Z,13.3
2023-04-28T14:04:06.294Z,13.3
2023-04-28T14:05:06.332Z,13.4
2023-04-28T14:06:06.559Z,13.4
2023-04-28T14:07:06.466Z,13.3
2023-04-28T14:08:06.128Z,13.4
2023-04-28T14:09:06.356Z,13.4
2023-04-28T14:10:06.747Z,13.4
2023-04-28T14:15:05.915Z,13.6
2023-04-28T14:16:06.263Z,13.6
2023-04-28T14:17:07.012Z,13.6
2023-04-28T14:18:06.818Z,13.6
2023-04-28T14:19:05.865Z,13.6
2023-04-28T14:20:06.497Z,13.5
2023-04-28T14:21:06.974Z,13.6
2023-04-28T14:22:06.322Z,13.5
2023-04-28T14:23:06.700Z,13.6
2023-04-28T14:24:06.855Z,13.6
2023-04-28T14:25:05.902Z,13.5
2023-04-28T14:26:06.313Z,13.5
2023-04-28T14:27:06.226Z,13.5
2023-04-28T14:28:06.563Z,13.5
2023-04-28T14:29:06.903Z,13.5
2023-04-28T14:33:06.386Z,13.4
2023-04-28T14:34:06.362Z,13.4
2023-04-28T14:35:06.792Z,13.4
2023-04-28T14:36:06.715Z,13
2023-04-28T14:37:06.994Z,13.4
2023-04-28T14:38:06.190Z,13.4
2023-04-28T14:39:06.419Z,13.4
2023-04-28T14:40:06.978Z,13.3
2023-04-28T14:41:07.010Z,13.3
2023-04-28T14:42:05.900Z,13.3
2023-04-28T14:43:06.263Z,13.3
2023-04-28T14:44:06.494Z,13.3
2023-04-28T14:45:06.747Z,13.3
2023-04-28T14:46:06.384Z,13.2
2023-04-28T14:47:06.637Z,13.2
2023-04-28T14:48:07.296Z,13.2
2023-04-28T14:49:06.359Z,13.2
2023-04-28T14:50:06.928Z,13.2
2023-04-28T14:51:05.858Z,13.2
2023-04-28T14:52:06.296Z,13.1
2023-04-28T14:53:06.619Z,13.1
2023-04-28T14:54:06.834Z,13.1
2023-04-28T14:55:06.077Z,13.1
2023-04-28T14:56:20.097Z,13.1
2023-04-28T14:58:06.049Z,13.1
2023-04-28T14:59:06.345Z,13
2023-04-28T15:00:06.728Z,13
2023-04-28T15:01:05.948Z,13
2023-04-28T15:02:06.607Z,13
2023-04-28T15:03:06.840Z,13
2023-04-28T15:04:06.060Z,13
2023-04-28T15:05:06.846Z,12.9
2023-04-28T15:09:06.173Z,13
2023-04-28T15:10:06.535Z,13
2023-04-28T15:11:06.488Z,13
2023-04-28T15:12:06.795Z,12.9
2023-04-28T15:13:07.040Z,12.9
2023-04-28T15:14:06.351Z,12.9
2023-04-28T15:15:06.508Z,12.9
2023-04-28T15:16:06.739Z,12.8
2023-04-28T15:17:06.608Z,12.9
2023-04-28T15:18:06.465Z,12.8
2023-04-28T15:21:06.043Z,12.8
2023-04-28T15:22:06.435Z,12.8
2023-04-28T15:23:06.528Z,12.8
2023-04-28T15:24:06.940Z,12.8
2023-04-28T15:25:06.475Z,12.9
2023-04-28T15:26:06.627Z,12.9
2023-04-28T15:27:06.908Z,12.8
2023-04-28T15:28:06.305Z,12.8
2023-04-28T15:29:06.736Z,12.8
2023-04-28T15:30:06.789Z,12.8
2023-04-28T15:31:06.994Z,12.9
2023-04-28T15:32:06.514Z,12.9
2023-04-28T15:33:07.063Z,12.8
2023-04-28T15:34:06.079Z,12.8
2023-04-28T15:35:06.538Z,12.9
2023-04-28T15:36:06.771Z,12.9
2023-04-28T15:40:06.032Z,12.9
2023-04-28T15:41:06.618Z,12.8
2023-04-28T15:42:06.037Z,12.9
2023-04-28T15:43:06.400Z,12.9
2023-04-28T15:44:06.774Z,12.9
2023-04-28T15:45:05.881Z,12.9
2023-04-28T15:46:06.528Z,12.9
2023-04-28T15:47:06.703Z,12.9
2023-04-28T15:48:06.993Z,12.9
2023-04-28T15:49:06.310Z,12.8
2023-04-28T15:50:06.533Z,12.9
2023-04-28T15:51:06.702Z,12.8
2023-04-28T15:52:06.913Z,12.8
2023-04-28T15:53:05.976Z,12.8
2023-04-28T15:54:06.117Z,12.9
2023-04-28T15:55:06.566Z,12.9